Terminal Aerodrome Forecast
Issued by NWS

Home | Current Version | Previous Version | Text Only | Print | Product List | Glossary On
Versions: 1 2 3 4 5 6 7 8 9 10 11 12 13 14 15 16
640
FTUS42 KTBW 302320
TAFPGD
TAF
KPGD 302320Z 3100/3124 20009KT P6SM SCT250
     FM310300 17005KT P6SM BKN250
     FM311400 18010G15KT P6SM SCT010 BKN050 BKN100
     FM311600 22013G24KT P6SM VCSH SCT035 BKN050=

USA.gov is the U.S. government's official web portal to all federal, state and local government web resources and services.